Hewlett Neck, New York
Current Conditions -  °F | °C
As of 11:51 PM on Tuesday 25 Nov 2014 (Local Time) from KJFK Reporting Station
Overcast Overcast  
Wind Chill: 47°   Ceiling: 15000
Heat Index: 49°   Visibility: 10mi
Dew Point: 33°   Wind: 5mph
Humidity: 54%   Direction: 260°W
Pressure: 30.16"   Gusts: NA
Location:  40.632°N, 73.7113°W
Report Text: KJFK 260451Z 26004KT 10SM OVC150 09/01 A3016 RMK AO2 SLP214 T00940006 401670089 $
Loading
Personal Weather Stations






























Interactive Weather Map New forecast layout! Learn more

10-Day Weather Forecast

Advertisements
Track Severe Weather on mobile